createdAt,value
2023-02-26T00:01:48.091Z,23.4
2023-02-26T00:07:41.314Z,23.4
2023-02-26T00:13:20.972Z,23.4
2023-02-26T00:19:15.407Z,23.4
2023-02-26T00:25:08.040Z,23.5
2023-02-26T00:31:01.602Z,23.4
2023-02-26T00:36:54.801Z,23.4
2023-02-26T00:42:48.212Z,23.5
2023-02-26T00:48:41.570Z,23.5
2023-02-26T00:54:33.642Z,23.5
2023-02-26T01:00:25.760Z,23.6
2023-02-26T01:06:18.593Z,23.5
2023-02-26T01:12:11.034Z,23.6
2023-02-26T01:18:04.675Z,23.6
2023-02-26T01:23:58.466Z,23.6
2023-02-26T01:29:50.936Z,23.6
2023-02-26T01:35:45.498Z,23.6
2023-02-26T01:41:39.077Z,23.6
2023-02-26T01:47:32.029Z,23.6
2023-02-26T01:53:25.338Z,23.6
2023-02-26T01:59:18.817Z,23.6
2023-02-26T02:05:11.435Z,23.6
2023-02-26T02:11:04.189Z,23.6
2023-02-26T02:16:41.655Z,23.6
2023-02-26T02:22:19.083Z,23.7
2023-02-26T02:28:12.198Z,23.7
2023-02-26T02:34:06.769Z,23.7
2023-02-26T02:39:59.723Z,23.7
2023-02-26T02:45:54.197Z,23.7
2023-02-26T02:51:48.216Z,23.7
2023-02-26T02:57:40.527Z,23.7
2023-02-26T03:03:34.464Z,23.7
2023-02-26T03:09:28.750Z,23.8
2023-02-26T03:15:21.436Z,23.8
2023-02-26T03:21:15.232Z,23.8
2023-02-26T03:27:08.098Z,23.8
2023-02-26T03:33:01.696Z,23.8
2023-02-26T03:38:54.127Z,23.8
2023-02-26T03:44:31.032Z,23.8
2023-02-26T03:50:24.174Z,23.8
2023-02-26T03:56:01.932Z,23.8
2023-02-26T04:01:54.910Z,23.8
2023-02-26T04:07:33.215Z,23.8
2023-02-26T04:13:13.128Z,23.8
2023-02-26T04:18:50.706Z,23.8
2023-02-26T04:24:43.775Z,23.8
2023-02-26T04:30:36.453Z,23.8
2023-02-26T04:36:29.690Z,23.8
2023-02-26T04:42:06.617Z,23.8
2023-02-26T04:48:00.782Z,23.8
2023-02-26T04:53:38.442Z,23.8
2023-02-26T04:59:17.208Z,23.8
2023-02-26T05:04:38.468Z,23.8
2023-02-26T05:10:31.761Z,23.8
2023-02-26T05:16:25.596Z,23.9
2023-02-26T05:22:20.941Z,23.9
2023-02-26T05:28:13.847Z,23.8
2023-02-26T05:34:07.645Z,23.8
2023-02-26T05:40:00.603Z,23.8
2023-02-26T05:45:53.247Z,23.8
2023-02-26T05:51:46.869Z,23.8
2023-02-26T05:57:24.096Z,23.8
2023-02-26T06:03:16.569Z,23.8
2023-02-26T06:09:08.721Z,23.9
2023-02-26T06:15:00.917Z,23.9
2023-02-26T06:20:54.303Z,23.9
2023-02-26T06:26:46.635Z,23.9
2023-02-26T06:32:40.901Z,23.8
2023-02-26T06:38:18.359Z,23.9
2023-02-26T06:43:55.968Z,23.9
2023-02-26T06:49:49.104Z,23.9
2023-02-26T06:55:41.497Z,23.9
2023-02-26T07:01:34.220Z,23.8
2023-02-26T07:07:46.469Z,23.8
2023-02-26T07:13:42.037Z,23.8
2023-02-26T07:19:35.447Z,23.8
2023-02-26T07:25:29.200Z,23.8
2023-02-26T07:31:24.792Z,23.8
2023-02-26T07:37:18.076Z,24
2023-02-26T07:43:09.954Z,23.9
2023-02-26T07:48:47.791Z,23.8
2023-02-26T07:54:39.921Z,23.8
2023-02-26T08:00:32.330Z,23.8
2023-02-26T08:06:25.745Z,23.8
2023-02-26T08:12:17.929Z,23.8
2023-02-26T08:18:11.554Z,23.8
2023-02-26T08:23:50.552Z,23.8
2023-02-26T08:29:27.193Z,23.8
2023-02-26T08:35:20.846Z,23.8
2023-02-26T08:40:58.745Z,23.9
2023-02-26T08:46:38.118Z,23.8
2023-02-26T08:52:42.728Z,23.8
2023-02-26T08:58:34.968Z,23.8
2023-02-26T09:04:29.892Z,23.8
2023-02-26T09:10:24.009Z,23.8
2023-02-26T09:16:01.595Z,23.8
2023-02-26T09:21:55.008Z,23.8
2023-02-26T09:27:48.093Z,23.8
2023-02-26T09:33:26.153Z,23.8
2023-02-26T09:39:18.514Z,23.8
2023-02-26T09:45:13.228Z,23.9
2023-02-26T09:50:50.695Z,23.8
2023-02-26T09:56:42.042Z,23.8
2023-02-26T10:02:34.715Z,23.8
2023-02-26T10:08:27.861Z,23.8
2023-02-26T10:14:34.435Z,23.8
2023-02-26T10:19:41.260Z,23.8
2023-02-26T10:25:34.549Z,23.8
2023-02-26T10:31:28.307Z,23.8
2023-02-26T10:36:53.948Z,23.7
2023-02-26T10:42:46.740Z,23.8
2023-02-26T10:48:23.927Z,23.8
2023-02-26T10:53:45.970Z,23.7
2023-02-26T10:59:23.447Z,23.8
2023-02-26T11:05:07.373Z,23.7
2023-02-26T11:10:43.882Z,23.7
2023-02-26T11:16:39.002Z,23.7
2023-02-26T11:22:31.680Z,23.7
2023-02-26T11:28:26.264Z,23.7
2023-02-26T11:34:22.607Z,23.7
2023-02-26T11:40:18.786Z,23.7
2023-02-26T11:45:55.702Z,23.7
2023-02-26T11:51:33.906Z,23.7
2023-02-26T11:56:55.436Z,23.6
2023-02-26T12:02:34.574Z,23.6
2023-02-26T12:08:27.867Z,23.6
2023-02-26T12:14:21.332Z,23.6
2023-02-26T12:20:00.731Z,23.6
2023-02-26T12:25:54.327Z,23.6
2023-02-26T12:31:32.035Z,23.6
2023-02-26T12:37:42.248Z,23.6
2023-02-26T12:43:35.790Z,23.6
2023-02-26T12:49:12.977Z,23.6
2023-02-26T12:55:05.800Z,23.6
2023-02-26T13:00:59.025Z,23.6
2023-02-26T13:07:02.326Z,23.6
2023-02-26T13:12:55.327Z,23.6
2023-02-26T13:18:47.923Z,23.6
2023-02-26T13:24:40.205Z,23.6
2023-02-26T13:30:32.268Z,23.6
2023-02-26T13:36:30.834Z,23.6
2023-02-26T13:42:23.746Z,23.6
2023-02-26T13:47:29.658Z,23.6
2023-02-26T13:52:52.047Z,23.6
2023-02-26T13:58:28.892Z,23.6
2023-02-26T14:04:07.237Z,23.6
2023-02-26T14:09:44.726Z,23.5
2023-02-26T14:15:23.717Z,23.5
2023-02-26T14:21:16.451Z,23.5
2023-02-26T14:27:09.739Z,23.5
2023-02-26T14:33:03.786Z,23.5
2023-02-26T14:38:56.471Z,23.5
2023-02-26T14:44:53.311Z,23.5
2023-02-26T14:50:46.309Z,23.5
2023-02-26T14:56:38.948Z,23.5
2023-02-26T15:02:31.040Z,23.5
2023-02-26T15:08:23.840Z,23.5
2023-02-26T15:14:18.853Z,23.5
2023-02-26T15:20:12.795Z,23.5
2023-02-26T15:26:06.110Z,23.4
2023-02-26T15:32:00.057Z,23.4
2023-02-26T15:37:54.385Z,23.4
2023-02-26T15:43:47.558Z,23.4
2023-02-26T15:49:48.173Z,23.4
2023-02-26T15:55:41.663Z,23.4
2023-02-26T16:01:35.039Z,23.4
2023-02-26T16:07:11.946Z,23.4
2023-02-26T16:13:04.804Z,23.4
2023-02-26T16:18:58.558Z,23.4
2023-02-26T16:24:51.786Z,23.3
2023-02-26T16:30:45.157Z,23.4
2023-02-26T16:36:24.641Z,23.3
2023-02-26T16:42:02.250Z,23.3
2023-02-26T16:47:40.999Z,23.4
2023-02-26T16:53:04.567Z,23.3
2023-02-26T16:58:28.914Z,23.3
2023-02-26T17:04:06.973Z,23.3
2023-02-26T17:10:02.152Z,23.3
2023-02-26T17:15:57.443Z,23.3
2023-02-26T17:21:53.268Z,23.3
2023-02-26T17:27:45.951Z,23.3
2023-02-26T17:33:39.585Z,23.3
2023-02-26T17:39:33.286Z,23.4
2023-02-26T17:45:26.408Z,23.3
2023-02-26T17:51:19.811Z,23.3
2023-02-26T17:57:13.684Z,23.2
2023-02-26T18:03:07.464Z,23.2
2023-02-26T18:09:01.722Z,23.3
2023-02-26T18:14:54.755Z,23.3
2023-02-26T18:20:48.843Z,23.2
2023-02-26T18:26:41.533Z,23.2
2023-02-26T18:32:36.109Z,23.3
2023-02-26T18:38:28.652Z,23.2
2023-02-26T18:44:21.634Z,23.3
2023-02-26T18:50:15.235Z,23.2
2023-02-26T18:56:08.000Z,23.2
2023-02-26T19:02:05.697Z,23.2
2023-02-26T19:07:59.016Z,23.2
2023-02-26T19:13:52.447Z,23.1
2023-02-26T19:19:46.005Z,23.1
2023-02-26T19:25:42.443Z,23.1
2023-02-26T19:31:38.188Z,23.1
2023-02-26T19:37:34.223Z,23.1
2023-02-26T19:43:28.016Z,23.1
2023-02-26T19:49:21.986Z,23.1
2023-02-26T19:55:13.705Z,23.1
2023-02-26T20:01:07.615Z,23.1
2023-02-26T20:07:01.391Z,23.1
2023-02-26T20:12:55.933Z,23.1
2023-02-26T20:18:50.244Z,23.1
2023-02-26T20:24:43.481Z,23
2023-02-26T20:30:20.226Z,23.1
2023-02-26T20:36:18.062Z,23.1
2023-02-26T20:42:13.508Z,23.1
2023-02-26T20:48:07.054Z,23
2023-02-26T20:54:01.080Z,23
2023-02-26T20:59:39.077Z,23
2023-02-26T21:05:16.932Z,23
2023-02-26T21:11:10.216Z,23
2023-02-26T21:17:03.269Z,23
2023-02-26T21:22:56.798Z,22.9
2023-02-26T21:28:51.537Z,23
2023-02-26T21:35:10.484Z,23
2023-02-26T21:41:03.931Z,23.1
2023-02-26T21:46:58.210Z,23
2023-02-26T21:52:51.872Z,23.1
2023-02-26T21:58:44.343Z,23
2023-02-26T22:04:37.835Z,23.1
2023-02-26T22:10:30.675Z,23
2023-02-26T22:16:23.254Z,23
2023-02-26T22:22:15.887Z,23
2023-02-26T22:28:08.157Z,23
2023-02-26T22:34:00.691Z,23
2023-02-26T22:39:53.701Z,23
2023-02-26T22:45:46.632Z,23.1
2023-02-26T22:51:38.702Z,23.1
2023-02-26T22:57:31.691Z,23
2023-02-26T23:03:24.734Z,23.1
2023-02-26T23:09:17.444Z,23
2023-02-26T23:15:10.543Z,23
2023-02-26T23:21:02.989Z,23
2023-02-26T23:26:54.937Z,23
2023-02-26T23:32:48.379Z,23
2023-02-26T23:38:39.979Z,23
2023-02-26T23:44:32.784Z,23
2023-02-26T23:50:25.342Z,23
2023-02-26T23:56:17.119Z,23
